Terminal Aerodrome Forecast
Issued by NWS

Home | Current Version | Previous Version | Text Only | Print | Product List | Glossary On
Versions: 1 2 3 4 5 6 7 8 9 10 11 12
000
FTUS45 KPIH 040520
TAFSUN
TAF
KSUN 040520Z 0406/0506 31011KT P6SM SKC
     FM041700 14008KT P6SM SKC
     FM042100 23010KT P6SM FEW090
     FM050400 31009KT P6SM BKN200
      AMD LTD TO CLD VIS AND WIND TIL 041300=

USA.gov is the U.S. government's official web portal to all federal, state and local government web resources and services.